Time;durP1;ratioP1;P1;durP2;ratioP2;P2;SDS_P1;SDS_P2;PMS_P1;PMS_P2;Temp;Humidity;BMP_temperature;BMP_pressure;BME280_temperature;BME280_humidity;BME280_pressure;Samples;Min_cycle;Max_cycle;Signal;HPM_P1;HPM_P2
2023/04/10 00:02:04;;;;;;;4.75;4.32;;;;;;;;;;4935177;29;20035;-80
2023/04/10 00:04:30;;;;;;;4.45;4.05;;;;;;;;;;4927721;29;20643;-80
2023/04/10 00:06:55;;;;;;;4.00;3.60;;;;;;;;;;4934308;29;20052;-79
2023/04/10 00:09:20;;;;;;;4.07;3.78;;;;;;;;;;4930387;29;20024;-79
2023/04/10 00:11:45;;;;;;;4.70;4.32;;;;;;;;;;4929577;29;20498;-79
2023/04/10 00:14:11;;;;;;;4.05;3.75;;;;;;;;;;4913265;29;20092;-80
2023/04/10 00:16:36;;;;;;;3.80;3.50;;;;;;;;;;4945445;29;20079;-81
2023/04/10 00:19:01;;;;;;;4.47;4.10;;;;;;;;;;4913958;29;20042;-80
2023/04/10 00:21:27;;;;;;;5.70;3.55;;;;;;;;;;4934534;29;20012;-79
2023/04/10 00:23:52;;;;;;;4.65;4.25;;;;;;;;;;4895806;29;20031;-79
2023/04/10 00:26:19;;;;;;;3.47;3.17;;;;;;;;;;4910761;29;20024;-79
2023/04/10 00:28:44;;;;;;;4.10;3.80;;;;;;;;;;4927750;29;20099;-80
2023/04/10 00:31:10;;;;;;;4.32;4.00;;;;;;;;;;4911327;29;20487;-79
2023/04/10 00:33:35;;;;;;;4.55;4.15;;;;;;;;;;4912873;29;20044;-79
2023/04/10 00:36:01;;;;;;;5.15;3.55;;;;;;;;;;4928686;29;20114;-79
2023/04/10 00:38:26;;;;;;;4.60;4.20;;;;;;;;;;4911631;29;20142;-79
2023/04/10 00:40:51;;;;;;;5.57;5.07;;;;;;;;;;4927794;29;20491;-79
2023/04/10 00:43:19;;;;;;;5.97;4.35;;;;;;;;;;4928339;29;20043;-79
2023/04/10 00:45:44;;;;;;;5.97;4.60;;;;;;;;;;4904787;29;20024;-80
2023/04/10 00:48:10;;;;;;;5.35;4.95;;;;;;;;;;4930953;29;20079;-80
2023/04/10 00:50:35;;;;;;;5.13;4.53;;;;;;;;;;4925306;29;20047;-80
2023/04/10 00:53:01;;;;;;;4.72;4.30;;;;;;;;;;4927870;29;20185;-79
2023/04/10 00:55:27;;;;;;;5.57;5.05;;;;;;;;;;4918529;29;20023;-80
2023/04/10 00:57:55;;;;;;;5.47;5.07;;;;;;;;;;4929780;29;20074;-79
2023/04/10 01:00:20;;;;;;;5.95;5.45;;;;;;;;;;4926039;29;20035;-79
2023/04/10 01:02:45;;;;;;;7.30;5.88;;;;;;;;;;4922982;29;20039;-80
2023/04/10 01:05:11;;;;;;;6.55;5.95;;;;;;;;;;4930802;29;20029;-79
2023/04/10 01:07:46;;;;;;;6.03;5.53;;;;;;;;;;4929381;29;20019;-79
2023/04/10 01:10:17;;;;;;;5.47;4.95;;;;;;;;;;4924921;29;20106;-80
2023/04/10 01:12:42;;;;;;;5.60;5.20;;;;;;;;;;4918426;29;20012;-79
2023/04/10 01:15:12;;;;;;;5.80;5.32;;;;;;;;;;4909253;29;20647;-78
2023/04/10 01:17:40;;;;;;;5.47;5.07;;;;;;;;;;4937295;29;20059;-80
2023/04/10 01:20:08;;;;;;;5.30;4.80;;;;;;;;;;4954343;29;20028;-81
2023/04/10 01:22:40;;;;;;;5.20;4.80;;;;;;;;;;4931414;29;20046;-81
2023/04/10 01:25:25;;;;;;;5.55;5.07;;;;;;;;;;4943471;29;20035;-80
2023/04/10 01:28:06;;;;;;;5.32;4.93;;;;;;;;;;4943092;29;20058;-80
2023/04/10 01:30:32;;;;;;;6.22;5.72;;;;;;;;;;4931465;29;20520;-81
2023/04/10 01:32:59;;;;;;;5.85;5.35;;;;;;;;;;4958059;29;20028;-82
2023/04/10 01:35:25;;;;;;;6.10;5.63;;;;;;;;;;4959151;29;20020;-82
2023/04/10 01:37:52;;;;;;;6.03;5.50;;;;;;;;;;4936561;29;20052;-81
2023/04/10 01:40:18;;;;;;;6.32;5.72;;;;;;;;;;4933022;29;20027;-80
2023/04/10 01:42:47;;;;;;;5.90;5.40;;;;;;;;;;4951589;29;19996;-81
2023/04/10 01:45:17;;;;;;;5.95;5.45;;;;;;;;;;4949709;29;20088;-80
2023/04/10 01:47:42;;;;;;;;;;;;;;;;;;4949100;29;20507;-80
2023/04/10 01:50:08;;;;;;;4.93;4.53;;;;;;;;;;4952930;29;19938;-81
2023/04/10 01:52:34;;;;;;;4.57;4.28;;;;;;;;;;4952037;29;20088;-81
2023/04/10 01:55:01;;;;;;;5.07;4.68;;;;;;;;;;4950494;29;20031;-81
2023/04/10 01:57:29;;;;;;;5.75;5.25;;;;;;;;;;4950931;29;20163;-81
2023/04/10 01:59:54;;;;;;;5.65;5.15;;;;;;;;;;4934635;29;20020;-82
2023/04/10 02:02:19;;;;;;;5.93;5.43;;;;;;;;;;4937847;29;20099;-81
2023/04/10 02:04:50;;;;;;;6.22;5.72;;;;;;;;;;4938281;29;20027;-80
2023/04/10 02:07:30;;;;;;;5.47;5.07;;;;;;;;;;4930045;29;20035;-80
2023/04/10 02:10:01;;;;;;;5.78;5.32;;;;;;;;;;4936180;29;20035;-79
2023/04/10 02:12:33;;;;;;;5.88;5.38;;;;;;;;;;4936343;29;20027;-79
2023/04/10 02:15:00;;;;;;;6.20;5.60;;;;;;;;;;4948348;29;20068;-81
2023/04/10 02:17:27;;;;;;;5.88;5.40;;;;;;;;;;4950590;29;20100;-81
2023/04/10 02:19:54;;;;;;;5.55;5.15;;;;;;;;;;4949125;29;20022;-80
2023/04/10 02:22:20;;;;;;;5.78;5.28;;;;;;;;;;4948412;29;20040;-81
2023/04/10 02:24:46;;;;;;;6.00;5.47;;;;;;;;;;4946872;29;20024;-80
2023/04/10 02:27:11;;;;;;;5.75;5.35;;;;;;;;;;4942421;29;20039;-80
2023/04/10 02:29:36;;;;;;;5.20;4.80;;;;;;;;;;4911848;29;20095;-80
2023/04/10 02:32:02;;;;;;;5.85;5.35;;;;;;;;;;4924357;29;20380;-80
2023/04/10 02:34:28;;;;;;;6.80;6.30;;;;;;;;;;4934092;29;20107;-80
2023/04/10 02:36:53;;;;;;;6.20;5.65;;;;;;;;;;4925577;29;20095;-80
2023/04/10 02:39:19;;;;;;;6.63;6.03;;;;;;;;;;4945997;29;20023;-81
2023/04/10 02:41:45;;;;;;;5.97;5.47;;;;;;;;;;4943581;29;20101;-80
2023/04/10 02:44:11;;;;;;;6.40;5.90;;;;;;;;;;4954160;29;20031;-79
2023/04/10 02:46:37;;;;;;;6.43;5.93;;;;;;;;;;4917414;29;20043;-80
2023/04/10 02:49:02;;;;;;;6.25;5.75;;;;;;;;;;4936979;29;20067;-80
2023/04/10 02:51:27;;;;;;;5.85;5.35;;;;;;;;;;4907384;29;20035;-80
2023/04/10 02:53:52;;;;;;;6.65;5.80;;;;;;;;;;4918499;29;20020;-80
2023/04/10 02:56:18;;;;;;;6.47;5.93;;;;;;;;;;4918378;29;20043;-80
2023/04/10 02:58:45;;;;;;;7.82;6.57;;;;;;;;;;4922265;29;20028;-80
2023/04/10 03:01:10;;;;;;;6.07;5.32;;;;;;;;;;4898608;29;20024;-79
2023/04/10 03:03:36;;;;;;;7.53;6.90;;;;;;;;;;4897472;29;20566;-79
2023/04/10 03:06:01;;;;;;;15.57;10.82;;;;;;;;;;4933270;29;20111;-80
2023/04/10 03:08:26;;;;;;;10.77;8.77;;;;;;;;;;4920117;29;20039;-80
2023/04/10 03:10:52;;;;;;;12.27;9.10;;;;;;;;;;4938703;29;20039;-80
2023/04/10 03:13:17;;;;;;;8.07;7.28;;;;;;;;;;4929094;29;20043;-80
2023/04/10 03:15:42;;;;;;;12.05;9.27;;;;;;;;;;4904889;29;20035;-81
2023/04/10 03:18:11;;;;;;;13.50;10.65;;;;;;;;;;4923868;29;20486;-80
2023/04/10 03:20:37;;;;;;;15.15;10.45;;;;;;;;;;4935333;29;20034;-80
2023/04/10 03:23:03;;;;;;;22.13;13.40;;;;;;;;;;4940033;29;20032;-80
2023/04/10 03:25:28;;;;;;;25.42;12.48;;;;;;;;;;4909082;29;20547;-79
2023/04/10 03:27:54;;;;;;;33.95;15.77;;;;;;;;;;4934960;29;20541;-79
2023/04/10 03:30:19;;;;;;;19.35;11.85;;;;;;;;;;4913952;29;20482;-79
2023/04/10 03:32:45;;;;;;;9.13;8.23;;;;;;;;;;4910334;29;20044;-80
2023/04/10 03:35:11;;;;;;;19.42;13.43;;;;;;;;;;4940460;29;20031;-81
2023/04/10 03:37:37;;;;;;;77.95;36.85;;;;;;;;;;4929902;29;20400;-80
2023/04/10 03:40:06;;;;;;;49.08;25.98;;;;;;;;;;4940458;29;20024;-80
2023/04/10 03:42:31;;;;;;;18.92;14.40;;;;;;;;;;4921628;29;20040;-80
2023/04/10 03:44:57;;;;;;;10.50;9.50;;;;;;;;;;4943132;29;20023;-81
2023/04/10 03:47:22;;;;;;;7.43;6.72;;;;;;;;;;4951402;29;20027;-81
2023/04/10 03:49:47;;;;;;;17.83;13.50;;;;;;;;;;4955315;29;20071;-82
2023/04/10 03:52:12;;;;;;;13.68;9.30;;;;;;;;;;4937340;29;20052;-81
2023/04/10 03:54:38;;;;;;;8.15;7.32;;;;;;;;;;4945142;29;20051;-82
2023/04/10 03:57:03;;;;;;;9.45;7.88;;;;;;;;;;4950639;29;20084;-81
2023/04/10 03:59:29;;;;;;;8.20;7.57;;;;;;;;;;4939004;29;20027;-81
2023/04/10 04:01:54;;;;;;;12.80;11.60;;;;;;;;;;4909909;29;20064;-79
2023/04/10 04:04:19;;;;;;;13.60;12.45;;;;;;;;;;4908449;29;20024;-79
2023/04/10 04:06:44;;;;;;;9.95;9.15;;;;;;;;;;4926283;29;20103;-80
2023/04/10 04:09:10;;;;;;;8.38;7.57;;;;;;;;;;4917070;29;20075;-79
2023/04/10 04:11:37;;;;;;;7.00;6.30;;;;;;;;;;4926264;29;20034;-81
2023/04/10 04:14:02;;;;;;;37.17;17.33;;;;;;;;;;4932999;29;20517;-79
2023/04/10 04:16:27;;;;;;;10.25;8.30;;;;;;;;;;4930004;29;20095;-80
2023/04/10 04:18:53;;;;;;;8.15;6.72;;;;;;;;;;4933137;29;20079;-80
2023/04/10 04:21:18;;;;;;;37.25;16.10;;;;;;;;;;4938073;29;20020;-80
2023/04/10 04:23:43;;;;;;;77.00;33.67;;;;;;;;;;4935926;29;20076;-80
2023/04/10 04:26:10;;;;;;;70.90;32.20;;;;;;;;;;4919447;29;20027;-80
2023/04/10 04:28:35;;;;;;;29.27;15.07;;;;;;;;;;4930829;29;20211;-79
2023/04/10 04:31:01;;;;;;;10.75;8.57;;;;;;;;;;4914901;29;20398;-79
2023/04/10 04:33:26;;;;;;;25.92;13.77;;;;;;;;;;4932144;29;20050;-79
2023/04/10 04:35:53;;;;;;;17.10;11.68;;;;;;;;;;4930739;29;20028;-79
2023/04/10 04:38:19;;;;;;;18.75;13.82;;;;;;;;;;4918355;29;20110;-79
2023/04/10 04:40:44;;;;;;;22.42;15.57;;;;;;;;;;4912904;29;20114;-79
2023/04/10 04:43:09;;;;;;;17.05;11.93;;;;;;;;;;4931082;29;20035;-80
2023/04/10 04:45:35;;;;;;;7.85;7.05;;;;;;;;;;4912733;29;20055;-80
2023/04/10 04:48:00;;;;;;;8.38;7.55;;;;;;;;;;4914207;29;20030;-80
2023/04/10 04:50:25;;;;;;;16.67;12.10;;;;;;;;;;4930718;29;20071;-79
2023/04/10 04:52:51;;;;;;;14.73;12.18;;;;;;;;;;4911232;29;20012;-80
2023/04/10 04:55:16;;;;;;;12.40;9.95;;;;;;;;;;4920105;29;20421;-79
2023/04/10 04:57:41;;;;;;;11.32;10.23;;;;;;;;;;4931676;29;20054;-80
2023/04/10 05:00:07;;;;;;;22.92;14.90;;;;;;;;;;4945609;29;20027;-79
2023/04/10 05:02:32;;;;;;;9.50;8.60;;;;;;;;;;4917886;29;20031;-79
2023/04/10 05:04:57;;;;;;;9.45;7.47;;;;;;;;;;4906724;29;20042;-80
2023/04/10 05:07:23;;;;;;;11.82;8.23;;;;;;;;;;4911488;29;20024;-80
2023/04/10 05:09:48;;;;;;;9.73;8.32;;;;;;;;;;4930731;29;20530;-80
2023/04/10 05:12:13;;;;;;;11.20;8.63;;;;;;;;;;4931615;29;20024;-80
2023/04/10 05:14:39;;;;;;;9.90;8.45;;;;;;;;;;4914768;29;20234;-79
2023/04/10 05:17:04;;;;;;;8.68;7.88;;;;;;;;;;4911921;29;20028;-80
2023/04/10 05:19:29;;;;;;;8.55;7.72;;;;;;;;;;4904937;29;20091;-80
2023/04/10 05:21:55;;;;;;;8.73;7.88;;;;;;;;;;4907782;29;20021;-81
2023/04/10 05:24:20;;;;;;;11.02;10.02;;;;;;;;;;4944154;29;20079;-81
2023/04/10 05:26:45;;;;;;;9.13;8.30;;;;;;;;;;4951705;29;20020;-82
2023/04/10 05:29:11;;;;;;;8.40;7.57;;;;;;;;;;4919656;29;20032;-81
2023/04/10 05:31:36;;;;;;;8.40;7.70;;;;;;;;;;4940623;29;20035;-81
2023/04/10 05:34:01;;;;;;;7.50;6.90;;;;;;;;;;4952471;29;20039;-83
2023/04/10 05:36:26;;;;;;;8.60;7.85;;;;;;;;;;4947972;29;20042;-82
2023/04/10 05:38:52;;;;;;;15.93;10.88;;;;;;;;;;4933827;29;20032;-82
2023/04/10 05:41:17;;;;;;;11.68;9.93;;;;;;;;;;4922706;29;20091;-82
2023/04/10 05:43:42;;;;;;;10.35;9.45;;;;;;;;;;4952828;29;20123;-82
2023/04/10 05:46:07;;;;;;;8.10;7.40;;;;;;;;;;4943831;29;20025;-82
2023/04/10 05:48:33;;;;;;;9.52;8.73;;;;;;;;;;4945567;29;20030;-83
2023/04/10 05:50:58;;;;;;;10.88;9.88;;;;;;;;;;4946443;29;20052;-82
2023/04/10 05:53:28;;;;;;;10.25;9.45;;;;;;;;;;4925813;29;20067;-82
2023/04/10 05:55:55;;;;;;;14.02;11.68;;;;;;;;;;4947613;29;20031;-82
2023/04/10 05:58:20;;;;;;;10.48;9.50;;;;;;;;;;4935214;29;20039;-80
2023/04/10 06:00:45;;;;;;;13.10;10.05;;;;;;;;;;4936207;29;20031;-82
2023/04/10 06:03:11;;;;;;;14.02;12.60;;;;;;;;;;4933334;29;20047;-81
2023/04/10 06:05:36;;;;;;;14.63;13.23;;;;;;;;;;4951524;29;20083;-81
2023/04/10 06:08:01;;;;;;;51.72;34.42;;;;;;;;;;4951646;29;20263;-81
2023/04/10 06:10:31;;;;;;;92.82;57.70;;;;;;;;;;4954071;29;20091;-82
2023/04/10 06:12:56;;;;;;;28.17;20.30;;;;;;;;;;4956716;29;20051;-82
2023/04/10 06:15:22;;;;;;;22.48;17.90;;;;;;;;;;4956220;29;20030;-84
2023/04/10 06:17:47;;;;;;;24.10;17.02;;;;;;;;;;4955713;29;20028;-84
2023/04/10 06:20:12;;;;;;;19.25;16.58;;;;;;;;;;4929753;29;20036;-84
2023/04/10 06:22:38;;;;;;;18.48;15.85;;;;;;;;;;4948840;29;20015;-84
2023/04/10 06:25:04;;;;;;;18.00;14.75;;;;;;;;;;4957355;29;20083;-83
2023/04/10 06:27:30;;;;;;;15.45;13.70;;;;;;;;;;4947367;29;20016;-83
2023/04/10 06:29:55;;;;;;;16.95;14.35;;;;;;;;;;4933135;29;20019;-84
2023/04/10 06:32:20;;;;;;;14.98;13.48;;;;;;;;;;4953413;29;20498;-81
2023/04/10 06:34:46;;;;;;;14.35;12.85;;;;;;;;;;4941851;29;20499;-84
2023/04/10 06:37:11;;;;;;;13.40;12.00;;;;;;;;;;4954562;29;20032;-84
2023/04/10 06:39:36;;;;;;;13.45;12.20;;;;;;;;;;4948552;29;20035;-84
2023/04/10 06:42:02;;;;;;;13.45;11.98;;;;;;;;;;4950675;29;20020;-84
2023/04/10 06:44:27;;;;;;;14.20;12.80;;;;;;;;;;4949745;29;20028;-84
2023/04/10 06:46:52;;;;;;;13.48;12.15;;;;;;;;;;4939280;29;20020;-85
2023/04/10 06:49:18;;;;;;;14.20;12.93;;;;;;;;;;4938911;29;20511;-85
2023/04/10 06:51:44;;;;;;;14.70;13.30;;;;;;;;;;4940699;29;20011;-83
2023/04/10 06:54:10;;;;;;;13.48;12.27;;;;;;;;;;4937751;29;20040;-82
2023/04/10 06:56:35;;;;;;;13.57;12.38;;;;;;;;;;4936863;29;20055;-84
2023/04/10 06:59:00;;;;;;;13.68;12.48;;;;;;;;;;4940527;29;20039;-83
2023/04/10 07:01:25;;;;;;;12.68;11.30;;;;;;;;;;4943552;29;20053;-82
2023/04/10 07:03:51;;;;;;;12.90;11.75;;;;;;;;;;4959798;29;20028;-85
2023/04/10 07:06:16;;;;;;;12.07;10.90;;;;;;;;;;4958552;29;20034;-84
2023/04/10 07:08:41;;;;;;;12.77;11.60;;;;;;;;;;4946624;29;20022;-85
2023/04/10 07:11:07;;;;;;;12.93;11.73;;;;;;;;;;5188475;23;20051;-84
2023/04/10 07:13:34;;;;;;;12.57;11.45;;;;;;;;;;4960460;29;20041;-85
2023/04/10 07:15:59;;;;;;;12.77;11.60;;;;;;;;;;4978190;29;20020;-84
2023/04/10 07:18:25;;;;;;;11.95;10.95;;;;;;;;;;4957928;29;20051;-84
2023/04/10 07:20:51;;;;;;;12.52;11.23;;;;;;;;;;4947732;29;20074;-85
2023/04/10 07:23:16;;;;;;;11.95;10.95;;;;;;;;;;4944715;29;20016;-85
2023/04/10 07:25:42;;;;;;;12.02;11.00;;;;;;;;;;4943687;29;20054;-85
2023/04/10 07:28:07;;;;;;;10.48;9.68;;;;;;;;;;4953948;29;20507;-84
2023/04/10 07:30:33;;;;;;;11.45;10.35;;;;;;;;;;4942895;29;20027;-84
2023/04/10 07:32:58;;;;;;;12.80;11.60;;;;;;;;;;4958304;29;20016;-84
2023/04/10 07:35:24;;;;;;;13.90;11.38;;;;;;;;;;4940947;29;20012;-84
2023/04/10 07:37:51;;;;;;;11.98;10.98;;;;;;;;;;4958014;29;20040;-84
2023/04/10 07:42:46;;;;;;;;;;;;;;;;;;3207925;23;20088;-84
2023/04/10 07:45:11;;;;;;;11.98;10.93;;;;;;;;;;4923931;29;19915;-85
2023/04/10 08:31:28;;;;;;;10.85;9.85;;;;;;;;;;5892844;23;20683;-85
2023/04/10 08:33:54;;;;;;;11.25;10.25;;;;;;;;;;4948040;29;20032;-84
2023/04/10 08:36:21;;;;;;;9.88;9.05;;;;;;;;;;4921198;29;20020;-85
2023/04/10 08:38:49;;;;;;;10.23;9.43;;;;;;;;;;4934760;29;20036;-85
2023/04/10 08:41:15;;;;;;;9.80;9.02;;;;;;;;;;5010074;23;20027;-85
2023/04/10 08:43:42;;;;;;;9.63;8.90;;;;;;;;;;5317877;23;20052;-84
2023/04/10 08:46:07;;;;;;;10.40;9.52;;;;;;;;;;4972708;29;20041;-82
2023/04/10 08:48:47;;;;;;;10.55;9.50;;;;;;;;;;4964146;28;20024;-81
2023/04/10 08:51:21;;;;;;;10.13;9.32;;;;;;;;;;4953268;29;20047;-83
2023/04/10 08:53:50;;;;;;;11.90;8.45;;;;;;;;;;4931546;29;20043;-81
2023/04/10 08:56:17;;;;;;;9.07;8.27;;;;;;;;;;4941920;29;20020;-83
2023/04/10 08:58:42;;;;;;;9.10;8.30;;;;;;;;;;4954082;28;20053;-85
2023/04/10 09:01:08;;;;;;;9.50;8.60;;;;;;;;;;4944372;29;20107;-85
2023/04/10 09:03:34;;;;;;;9.65;8.85;;;;;;;;;;4955869;29;20008;-82
2023/04/10 09:06:01;;;;;;;11.18;9.88;;;;;;;;;;4970006;29;20106;-84
2023/04/10 09:08:28;;;;;;;10.50;9.60;;;;;;;;;;4965561;29;20079;-84
2023/04/10 09:10:53;;;;;;;9.45;8.75;;;;;;;;;;4972556;29;20007;-81
2023/04/10 09:13:34;;;;;;;8.93;8.23;;;;;;;;;;4973589;29;20112;-85
2023/04/10 09:15:59;;;;;;;9.60;8.80;;;;;;;;;;4969848;29;20035;-80
2023/04/10 09:18:44;;;;;;;10.18;9.18;;;;;;;;;;4993148;23;20047;-83
2023/04/10 09:21:10;;;;;;;8.95;8.25;;;;;;;;;;4949486;29;20051;-83
2023/04/10 09:23:35;;;;;;;7.72;7.13;;;;;;;;;;4962620;29;20020;-83
2023/04/10 09:26:04;;;;;;;7.93;7.32;;;;;;;;;;4943691;29;20008;-82
2023/04/10 09:28:30;;;;;;;7.83;7.20;;;;;;;;;;4940242;29;20011;-83
2023/04/10 09:30:57;;;;;;;6.68;6.18;;;;;;;;;;4974194;28;20011;-83
2023/04/10 09:33:22;;;;;;;6.63;6.13;;;;;;;;;;5304005;23;20062;-82
2023/04/10 09:35:48;;;;;;;6.82;6.32;;;;;;;;;;4958159;29;20031;-83
2023/04/10 09:38:15;;;;;;;7.55;6.95;;;;;;;;;;4975856;28;20095;-83
2023/04/10 09:40:41;;;;;;;8.45;7.75;;;;;;;;;;4952949;29;20039;-84
2023/04/10 09:43:21;;;;;;;9.20;8.50;;;;;;;;;;4980756;28;20023;-84
2023/04/10 09:45:56;;;;;;;8.13;7.53;;;;;;;;;;4964008;29;20055;-81
2023/04/10 09:48:22;;;;;;;9.82;9.13;;;;;;;;;;4964468;29;20375;-83
2023/04/10 10:25:33;;;;;;;7.72;7.22;;;;;;;;;;5636551;23;20058;-81
2023/04/10 10:28:01;;;;;;;7.88;7.18;;;;;;;;;;5345620;23;20039;-83
2023/04/10 10:33:05;;;;;;;8.10;7.50;;;;;;;;;;5267521;23;19914;-82
2023/04/10 10:38:06;;;;;;;6.97;6.47;;;;;;;;;;5604067;23;20042;-81
2023/04/10 10:40:31;;;;;;;8.00;7.40;;;;;;;;;;5060050;23;20080;-81
2023/04/10 10:43:15;;;;;;;7.50;6.90;;;;;;;;;;5338033;23;20052;-80
2023/04/10 10:45:55;;;;;;;6.18;5.78;;;;;;;;;;4979087;28;20046;-79
2023/04/10 10:48:20;;;;;;;6.20;5.70;;;;;;;;;;4978807;28;20109;-82
2023/04/10 10:50:50;;;;;;;7.40;6.80;;;;;;;;;;5239790;23;20047;-81
2023/04/10 10:53:34;;;;;;;7.43;6.82;;;;;;;;;;4968110;29;20054;-80
2023/04/10 10:56:18;;;;;;;7.93;7.38;;;;;;;;;;4966264;29;20042;-79
2023/04/10 10:58:46;;;;;;;7.85;7.25;;;;;;;;;;4955700;29;20028;-81
2023/04/10 11:03:47;;;;;;;9.18;8.45;;;;;;;;;;5856207;23;20026;-80
2023/04/10 11:06:18;;;;;;;8.02;7.45;;;;;;;;;;4958006;28;20036;-81
2023/04/10 11:08:47;;;;;;;6.97;6.13;;;;;;;;;;4957823;28;20016;-82
2023/04/10 11:11:14;;;;;;;;;;;;;;;;;;4957280;29;20059;-81
2023/04/10 11:13:41;;;;;;;7.95;7.07;;;;;;;;;;5079470;23;19995;-76
2023/04/10 11:16:09;;;;;;;7.95;7.28;;;;;;;;;;4939135;29;20020;-81
2023/04/10 11:18:43;;;;;;;7.28;6.70;;;;;;;;;;4983464;23;20047;-80
2023/04/10 11:21:12;;;;;;;7.82;7.10;;;;;;;;;;4952668;29;20043;-79
2023/04/10 11:23:53;;;;;;;8.25;7.65;;;;;;;;;;4948582;29;20027;-81
2023/04/10 11:26:34;;;;;;;7.80;7.20;;;;;;;;;;4963812;29;20046;-80
2023/04/10 11:29:03;;;;;;;6.18;5.72;;;;;;;;;;4950502;29;20037;-78
2023/04/10 11:31:30;;;;;;;5.63;5.13;;;;;;;;;;4941705;29;20079;-77
2023/04/10 11:33:56;;;;;;;6.07;5.30;;;;;;;;;;5296645;23;20051;-79
2023/04/10 11:36:22;;;;;;;5.00;4.50;;;;;;;;;;4961240;29;20013;-82
2023/04/10 11:39:12;;;;;;;4.25;3.95;;;;;;;;;;5345357;23;20042;-83
2023/04/10 11:41:43;;;;;;;5.40;5.00;;;;;;;;;;4981867;23;20052;-78
2023/04/10 11:44:09;;;;;;;5.50;5.10;;;;;;;;;;4901341;29;20036;-85
2023/04/10 11:46:39;;;;;;;5.43;5.00;;;;;;;;;;4917050;29;20031;-82
2023/04/10 11:49:05;;;;;;;5.25;4.85;;;;;;;;;;4921058;29;20057;-82
2023/04/10 11:51:31;;;;;;;4.07;3.78;;;;;;;;;;4918775;29;20096;-82
2023/04/10 11:54:10;;;;;;;4.10;3.80;;;;;;;;;;4904730;29;20041;-85
2023/04/10 11:56:36;;;;;;;5.05;4.10;;;;;;;;;;4886832;29;20078;-81
2023/04/10 11:59:06;;;;;;;5.18;4.78;;;;;;;;;;4888209;29;20040;-79
2023/04/10 12:01:31;;;;;;;5.13;4.72;;;;;;;;;;4901927;29;20004;-84
2023/04/10 12:03:57;;;;;;;5.10;4.70;;;;;;;;;;4926609;29;20032;-83
2023/04/10 12:06:23;;;;;;;4.88;4.47;;;;;;;;;;4906575;29;20024;-82
2023/04/10 12:08:49;;;;;;;4.65;4.32;;;;;;;;;;4913988;29;20096;-81
2023/04/10 12:11:21;;;;;;;4.45;4.05;;;;;;;;;;4934245;29;20064;-81
2023/04/10 12:13:47;;;;;;;4.90;4.50;;;;;;;;;;4922936;29;20029;-78
2023/04/10 12:21:20;;;;;;;4.57;4.28;;;;;;;;;;4951483;29;20043;-79
2023/04/10 12:23:45;;;;;;;5.38;4.97;;;;;;;;;;4938611;29;20016;-82
2023/04/10 12:26:13;;;;;;;4.63;4.32;;;;;;;;;;4956378;29;20111;-81
2023/04/10 12:28:39;;;;;;;5.35;4.85;;;;;;;;;;4963446;23;20067;-80
2023/04/10 12:31:04;;;;;;;5.47;4.97;;;;;;;;;;4961284;28;20023;-82
2023/04/10 12:33:30;;;;;;;5.40;5.00;;;;;;;;;;4958781;28;20039;-81
2023/04/10 12:35:58;;;;;;;6.28;5.78;;;;;;;;;;4970770;28;20054;-82
2023/04/10 12:38:34;;;;;;;5.82;5.32;;;;;;;;;;4944506;28;20035;-77
2023/04/10 12:41:00;;;;;;;5.82;5.32;;;;;;;;;;4973542;28;20031;-79
2023/04/10 12:43:32;;;;;;;5.50;5.10;;;;;;;;;;4949003;29;20015;-83
2023/04/10 12:45:58;;;;;;;4.93;4.57;;;;;;;;;;4967068;28;20042;-85
2023/04/10 12:48:23;;;;;;;5.38;4.97;;;;;;;;;;4940407;29;20024;-79
2023/04/10 12:50:48;;;;;;;5.57;4.97;;;;;;;;;;4948025;28;20508;-84
2023/04/10 12:53:14;;;;;;;5.20;4.80;;;;;;;;;;4945294;29;20729;-85
2023/04/10 12:55:40;;;;;;;5.75;5.35;;;;;;;;;;4969510;28;20007;-85
2023/04/10 12:58:26;;;;;;;6.20;5.70;;;;;;;;;;4957906;29;20019;-83
2023/04/10 13:00:52;;;;;;;5.60;5.20;;;;;;;;;;4969729;29;20023;-79
2023/04/10 13:03:17;;;;;;;5.80;5.30;;;;;;;;;;4969690;29;20032;-85
2023/04/10 13:05:43;;;;;;;5.15;4.70;;;;;;;;;;4966415;29;20047;-80
2023/04/10 13:08:08;;;;;;;4.68;4.38;;;;;;;;;;4965471;29;20095;-80
2023/04/10 13:10:36;;;;;;;5.13;4.40;;;;;;;;;;4962144;29;20100;-84
2023/04/10 13:13:02;;;;;;;4.60;4.20;;;;;;;;;;4948757;29;20263;-79
2023/04/10 13:15:27;;;;;;;4.40;4.00;;;;;;;;;;4979740;28;20073;-84
2023/04/10 13:17:52;;;;;;;4.05;3.58;;;;;;;;;;4966318;28;20019;-81
2023/04/10 13:20:18;;;;;;;3.53;3.33;;;;;;;;;;4954936;29;20027;-83
2023/04/10 13:22:44;;;;;;;4.45;4.10;;;;;;;;;;4980502;28;20038;-82
2023/04/10 13:25:09;;;;;;;4.05;3.75;;;;;;;;;;4971670;28;20122;-86
2023/04/10 13:27:34;;;;;;;3.80;3.50;;;;;;;;;;4972820;28;20027;-85
2023/04/10 13:30:00;;;;;;;3.58;3.38;;;;;;;;;;4966410;28;20077;-80
2023/04/10 13:32:25;;;;;;;4.18;3.88;;;;;;;;;;4987355;28;20414;-84
2023/04/10 13:34:51;;;;;;;4.55;4.25;;;;;;;;;;4978615;28;20019;-81
2023/04/10 13:37:16;;;;;;;4.78;4.47;;;;;;;;;;4977164;28;20015;-84
2023/04/10 13:39:42;;;;;;;5.30;4.90;;;;;;;;;;4976997;28;20035;-83
2023/04/10 13:42:08;;;;;;;6.35;5.88;;;;;;;;;;4959154;28;20046;-77
2023/04/10 13:44:33;;;;;;;6.05;5.65;;;;;;;;;;4984360;28;20018;-78
2023/04/10 13:46:58;;;;;;;5.40;5.00;;;;;;;;;;4963470;28;20086;-79
2023/04/10 13:49:24;;;;;;;6.97;6.47;;;;;;;;;;4943838;28;20027;-79
2023/04/10 13:51:49;;;;;;;7.75;7.15;;;;;;;;;;4952263;28;20010;-78
2023/04/10 13:54:18;;;;;;;7.78;7.18;;;;;;;;;;4962188;28;20038;-80
2023/04/10 13:56:45;;;;;;;8.50;7.80;;;;;;;;;;4949753;28;20085;-76
2023/04/10 13:59:10;;;;;;;9.77;8.82;;;;;;;;;;4959501;28;20385;-78
2023/04/10 14:01:35;;;;;;;8.40;7.70;;;;;;;;;;4942488;29;20158;-78
2023/04/10 14:04:01;;;;;;;7.80;7.20;;;;;;;;;;4961736;28;20138;-80
2023/04/10 14:06:27;;;;;;;7.90;7.30;;;;;;;;;;4966043;28;20030;-77
2023/04/10 14:08:52;;;;;;;8.30;7.50;;;;;;;;;;4977649;28;20483;-82
2023/04/10 14:11:17;;;;;;;6.97;6.47;;;;;;;;;;4976472;28;20043;-80
2023/04/10 14:13:42;;;;;;;8.07;7.47;;;;;;;;;;4945504;29;20031;-79
2023/04/10 14:16:08;;;;;;;7.88;7.28;;;;;;;;;;4944262;29;20416;-80
2023/04/10 14:18:33;;;;;;;7.93;7.28;;;;;;;;;;4941715;29;20074;-80
2023/04/10 14:20:58;;;;;;;7.45;6.95;;;;;;;;;;4970659;28;20022;-81
2023/04/10 14:23:24;;;;;;;8.00;7.35;;;;;;;;;;4971608;28;20037;-81
2023/04/10 14:25:49;;;;;;;8.05;7.45;;;;;;;;;;4966785;28;20592;-82
2023/04/10 14:28:18;;;;;;;8.18;7.57;;;;;;;;;;4965931;28;20027;-80
2023/04/10 14:30:47;;;;;;;7.53;6.82;;;;;;;;;;4968879;28;20813;-79
2023/04/10 14:33:12;;;;;;;;;;;;;;;;;;4985055;28;20031;-83
2023/04/10 14:35:38;;;;;;;9.00;8.30;;;;;;;;;;4970385;28;19926;-79
2023/04/10 14:38:03;;;;;;;7.90;7.30;;;;;;;;;;4977479;28;20025;-81
2023/04/10 14:40:28;;;;;;;9.60;8.77;;;;;;;;;;4989500;28;20595;-80
2023/04/10 14:42:53;;;;;;;9.10;8.40;;;;;;;;;;4971269;28;20794;-81
2023/04/10 14:45:19;;;;;;;8.60;7.90;;;;;;;;;;4953718;29;20091;-81
2023/04/10 14:47:44;;;;;;;9.30;8.35;;;;;;;;;;4956247;28;20142;-81
2023/04/10 14:50:11;;;;;;;9.48;8.73;;;;;;;;;;4974269;28;20071;-81
2023/04/10 14:52:36;;;;;;;9.35;8.55;;;;;;;;;;4970366;28;20022;-82
2023/04/10 14:55:02;;;;;;;10.63;9.52;;;;;;;;;;5081840;23;20084;-80
2023/04/10 14:57:28;;;;;;;9.73;8.90;;;;;;;;;;4935440;29;20038;-80
2023/04/10 14:59:53;;;;;;;9.38;8.68;;;;;;;;;;4938471;29;20020;-81
2023/04/10 15:02:19;;;;;;;9.18;8.48;;;;;;;;;;4937362;29;20027;-81
2023/04/10 15:04:44;;;;;;;10.30;9.43;;;;;;;;;;4937168;29;20034;-81
2023/04/10 15:07:10;;;;;;;10.23;9.43;;;;;;;;;;4932316;29;20023;-82
2023/04/10 15:09:35;;;;;;;10.57;9.70;;;;;;;;;;4947909;29;20036;-81
2023/04/10 15:12:01;;;;;;;10.45;9.57;;;;;;;;;;4938861;29;20320;-82
2023/04/10 15:14:26;;;;;;;10.30;9.40;;;;;;;;;;4940720;29;20043;-82
2023/04/10 15:16:51;;;;;;;10.07;9.18;;;;;;;;;;4926083;29;20031;-81
2023/04/10 15:19:17;;;;;;;10.07;9.27;;;;;;;;;;4941190;29;20032;-81
2023/04/10 15:21:42;;;;;;;10.98;10.07;;;;;;;;;;4946504;29;20017;-83
2023/04/10 15:24:07;;;;;;;12.45;11.45;;;;;;;;;;4941936;29;20096;-82
2023/04/10 15:26:33;;;;;;;12.65;11.55;;;;;;;;;;4948875;29;20008;-82
2023/04/10 15:28:58;;;;;;;12.60;11.40;;;;;;;;;;4926763;29;20011;-83
2023/04/10 15:31:24;;;;;;;12.00;11.00;;;;;;;;;;4948062;29;20012;-82
2023/04/10 15:33:50;;;;;;;11.98;10.77;;;;;;;;;;4945920;29;20107;-81
2023/04/10 15:36:15;;;;;;;12.43;11.43;;;;;;;;;;4948131;29;20027;-83
2023/04/10 15:38:41;;;;;;;11.73;10.73;;;;;;;;;;4934587;29;20031;-82
2023/04/10 15:41:09;;;;;;;12.90;10.85;;;;;;;;;;4934929;29;20027;-81
2023/04/10 15:43:35;;;;;;;11.70;10.60;;;;;;;;;;4927409;29;20028;-81
2023/04/10 15:46:00;;;;;;;10.02;9.23;;;;;;;;;;4941707;29;20039;-83
2023/04/10 15:48:26;;;;;;;8.25;7.65;;;;;;;;;;4928290;29;20450;-80
2023/04/10 15:50:51;;;;;;;6.90;6.28;;;;;;;;;;4921195;29;20032;-80
2023/04/10 15:53:17;;;;;;;4.95;4.57;;;;;;;;;;4926271;29;20032;-81
2023/04/10 15:55:42;;;;;;;4.82;4.43;;;;;;;;;;4944892;28;20508;-80
2023/04/10 15:58:07;;;;;;;3.78;3.42;;;;;;;;;;4969883;29;20035;-80
2023/04/10 16:00:33;;;;;;;4.55;4.25;;;;;;;;;;4952581;28;20023;-78
2023/04/10 16:02:58;;;;;;;3.70;3.40;;;;;;;;;;4949296;28;20047;-78
2023/04/10 16:05:23;;;;;;;4.05;3.75;;;;;;;;;;4950498;29;20015;-80
2023/04/10 16:07:49;;;;;;;3.50;3.20;;;;;;;;;;4968599;28;20042;-81